sensor_id;sensor_type;location;lat;lon;timestamp;P1;durP1;ratioP1;P2;durP2;ratioP2
40793;SDS011;26502;51.886;15.604;2023-08-06T00:03:41;4.10;;;2.50;;
40793;SDS011;26502;51.886;15.604;2023-08-06T00:08:47;2.70;;;2.10;;
40793;SDS011;26502;51.886;15.604;2023-08-06T00:13:52;3.70;;;2.70;;
40793;SDS011;26502;51.886;15.604;2023-08-06T00:18:59;4.40;;;2.10;;
40793;SDS011;26502;51.886;15.604;2023-08-06T00:24:05;2.70;;;2.50;;
40793;SDS011;26502;51.886;15.604;2023-08-06T00:29:11;2.70;;;2.50;;
40793;SDS011;26502;51.886;15.604;2023-08-06T00:34:17;4.10;;;2.60;;
40793;SDS011;26502;51.886;15.604;2023-08-06T00:39:23;2.90;;;2.30;;
40793;SDS011;26502;51.886;15.604;2023-08-06T00:44:29;5.10;;;2.20;;
40793;SDS011;26502;51.886;15.604;2023-08-06T00:49:35;4.00;;;2.00;;
40793;SDS011;26502;51.886;15.604;2023-08-06T00:54:42;1.90;;;1.60;;
40793;SDS011;26502;51.886;15.604;2023-08-06T00:59:48;3.40;;;2.00;;
40793;SDS011;26502;51.886;15.604;2023-08-06T01:04:55;2.00;;;1.80;;
40793;SDS011;26502;51.886;15.604;2023-08-06T01:10:04;1.90;;;1.70;;
40793;SDS011;26502;51.886;15.604;2023-08-06T01:15:23;1.90;;;1.50;;
40793;SDS011;26502;51.886;15.604;2023-08-06T01:20:33;2.70;;;1.80;;
40793;SDS011;26502;51.886;15.604;2023-08-06T01:25:40;2.80;;;1.50;;
40793;SDS011;26502;51.886;15.604;2023-08-06T01:30:53;1.70;;;1.60;;
40793;SDS011;26502;51.886;15.604;2023-08-06T01:36:03;1.90;;;1.80;;
40793;SDS011;26502;51.886;15.604;2023-08-06T01:41:10;1.80;;;1.60;;
40793;SDS011;26502;51.886;15.604;2023-08-06T01:46:17;1.80;;;1.70;;
40793;SDS011;26502;51.886;15.604;2023-08-06T01:51:23;1.90;;;1.80;;
40793;SDS011;26502;51.886;15.604;2023-08-06T01:56:29;5.20;;;1.60;;
40793;SDS011;26502;51.886;15.604;2023-08-06T02:01:35;4.20;;;1.80;;
40793;SDS011;26502;51.886;15.604;2023-08-06T02:06:41;2.50;;;1.80;;
40793;SDS011;26502;51.886;15.604;2023-08-06T02:11:48;3.30;;;1.50;;
40793;SDS011;26502;51.886;15.604;2023-08-06T02:16:54;1.50;;;1.40;;
40793;SDS011;26502;51.886;15.604;2023-08-06T02:22:02;3.10;;;1.30;;
40793;SDS011;26502;51.886;15.604;2023-08-06T02:27:10;2.80;;;1.50;;
40793;SDS011;26502;51.886;15.604;2023-08-06T02:32:16;5.90;;;1.60;;
40793;SDS011;26502;51.886;15.604;2023-08-06T02:37:22;3.40;;;1.80;;
40793;SDS011;26502;51.886;15.604;2023-08-06T02:42:28;3.00;;;1.60;;
40793;SDS011;26502;51.886;15.604;2023-08-06T02:47:35;1.40;;;1.30;;
40793;SDS011;26502;51.886;15.604;2023-08-06T02:52:41;1.70;;;1.40;;
40793;SDS011;26502;51.886;15.604;2023-08-06T02:57:48;4.40;;;1.70;;
40793;SDS011;26502;51.886;15.604;2023-08-06T03:02:54;1.50;;;1.40;;
40793;SDS011;26502;51.886;15.604;2023-08-06T03:08:08;3.60;;;1.40;;
40793;SDS011;26502;51.886;15.604;2023-08-06T03:13:14;2.90;;;1.30;;
40793;SDS011;26502;51.886;15.604;2023-08-06T03:18:22;2.50;;;1.50;;
40793;SDS011;26502;51.886;15.604;2023-08-06T03:23:29;2.90;;;1.00;;
40793;SDS011;26502;51.886;15.604;2023-08-06T03:28:36;1.50;;;1.30;;
40793;SDS011;26502;51.886;15.604;2023-08-06T03:33:42;1.70;;;1.30;;
40793;SDS011;26502;51.886;15.604;2023-08-06T03:38:51;0.90;;;0.90;;
40793;SDS011;26502;51.886;15.604;2023-08-06T03:43:58;1.40;;;1.30;;
40793;SDS011;26502;51.886;15.604;2023-08-06T03:49:06;1.80;;;1.30;;
40793;SDS011;26502;51.886;15.604;2023-08-06T03:54:12;1.40;;;1.30;;
40793;SDS011;26502;51.886;15.604;2023-08-06T03:59:18;2.30;;;1.20;;
40793;SDS011;26502;51.886;15.604;2023-08-06T04:04:24;1.10;;;1.10;;
40793;SDS011;26502;51.886;15.604;2023-08-06T04:09:30;1.60;;;1.50;;
40793;SDS011;26502;51.886;15.604;2023-08-06T04:14:36;1.50;;;1.40;;
40793;SDS011;26502;51.886;15.604;2023-08-06T04:19:42;1.80;;;1.70;;
40793;SDS011;26502;51.886;15.604;2023-08-06T04:24:48;1.40;;;1.40;;
40793;SDS011;26502;51.886;15.604;2023-08-06T04:29:55;1.70;;;1.60;;
40793;SDS011;26502;51.886;15.604;2023-08-06T04:35:02;2.30;;;2.10;;
40793;SDS011;26502;51.886;15.604;2023-08-06T04:40:10;3.40;;;2.10;;
40793;SDS011;26502;51.886;15.604;2023-08-06T04:45:16;1.80;;;1.70;;
40793;SDS011;26502;51.886;15.604;2023-08-06T04:50:22;1.90;;;1.70;;
40793;SDS011;26502;51.886;15.604;2023-08-06T04:55:29;1.80;;;1.70;;
40793;SDS011;26502;51.886;15.604;2023-08-06T05:00:35;2.00;;;1.80;;
40793;SDS011;26502;51.886;15.604;2023-08-06T05:05:41;2.50;;;2.40;;
40793;SDS011;26502;51.886;15.604;2023-08-06T05:10:48;2.60;;;2.00;;
40793;SDS011;26502;51.886;15.604;2023-08-06T05:15:54;2.10;;;1.50;;
40793;SDS011;26502;51.886;15.604;2023-08-06T05:21:01;1.80;;;1.60;;
40793;SDS011;26502;51.886;15.604;2023-08-06T05:26:07;1.70;;;1.60;;
40793;SDS011;26502;51.886;15.604;2023-08-06T05:31:13;3.80;;;1.90;;
40793;SDS011;26502;51.886;15.604;2023-08-06T05:36:19;1.90;;;1.70;;
40793;SDS011;26502;51.886;15.604;2023-08-06T05:41:24;2.30;;;1.80;;
40793;SDS011;26502;51.886;15.604;2023-08-06T05:46:30;3.90;;;1.60;;
40793;SDS011;26502;51.886;15.604;2023-08-06T05:51:36;2.30;;;2.00;;
40793;SDS011;26502;51.886;15.604;2023-08-06T05:56:42;2.00;;;1.80;;
40793;SDS011;26502;51.886;15.604;2023-08-06T06:01:49;2.10;;;1.90;;
40793;SDS011;26502;51.886;15.604;2023-08-06T06:06:55;2.10;;;1.50;;
40793;SDS011;26502;51.886;15.604;2023-08-06T06:12:01;1.60;;;1.50;;
40793;SDS011;26502;51.886;15.604;2023-08-06T06:17:08;1.70;;;1.60;;
40793;SDS011;26502;51.886;15.604;2023-08-06T06:22:14;1.60;;;1.50;;
40793;SDS011;26502;51.886;15.604;2023-08-06T06:27:20;1.60;;;1.50;;
40793;SDS011;26502;51.886;15.604;2023-08-06T06:32:26;5.60;;;1.70;;
40793;SDS011;26502;51.886;15.604;2023-08-06T06:37:32;1.80;;;1.70;;
40793;SDS011;26502;51.886;15.604;2023-08-06T06:42:38;2.00;;;1.70;;
40793;SDS011;26502;51.886;15.604;2023-08-06T06:47:46;1.50;;;1.40;;
40793;SDS011;26502;51.886;15.604;2023-08-06T06:52:52;1.80;;;1.40;;
40793;SDS011;26502;51.886;15.604;2023-08-06T06:57:58;1.70;;;1.50;;
40793;SDS011;26502;51.886;15.604;2023-08-06T07:03:05;1.30;;;1.30;;
40793;SDS011;26502;51.886;15.604;2023-08-06T07:08:11;1.70;;;1.60;;
40793;SDS011;26502;51.886;15.604;2023-08-06T07:13:17;1.80;;;1.70;;
40793;SDS011;26502;51.886;15.604;2023-08-06T07:18:25;1.70;;;1.60;;
40793;SDS011;26502;51.886;15.604;2023-08-06T07:23:31;1.60;;;1.50;;
40793;SDS011;26502;51.886;15.604;2023-08-06T07:28:37;1.80;;;1.20;;
40793;SDS011;26502;51.886;15.604;2023-08-06T07:33:43;1.10;;;1.00;;
40793;SDS011;26502;51.886;15.604;2023-08-06T07:38:51;2.20;;;1.20;;
40793;SDS011;26502;51.886;15.604;2023-08-06T07:43:59;1.10;;;1.00;;
40793;SDS011;26502;51.886;15.604;2023-08-06T07:49:05;1.80;;;1.00;;
40793;SDS011;26502;51.886;15.604;2023-08-06T07:54:11;1.10;;;0.90;;
40793;SDS011;26502;51.886;15.604;2023-08-06T07:59:17;0.90;;;0.60;;
40793;SDS011;26502;51.886;15.604;2023-08-06T08:04:23;1.10;;;0.80;;
40793;SDS011;26502;51.886;15.604;2023-08-06T08:09:29;1.00;;;0.80;;
40793;SDS011;26502;51.886;15.604;2023-08-06T08:14:35;0.60;;;0.60;;
40793;SDS011;26502;51.886;15.604;2023-08-06T08:19:41;0.80;;;0.80;;
40793;SDS011;26502;51.886;15.604;2023-08-06T08:24:47;1.00;;;1.00;;
40793;SDS011;26502;51.886;15.604;2023-08-06T08:29:53;0.80;;;0.80;;
40793;SDS011;26502;51.886;15.604;2023-08-06T08:34:59;0.90;;;0.90;;
40793;SDS011;26502;51.886;15.604;2023-08-06T08:40:07;0.90;;;0.60;;
40793;SDS011;26502;51.886;15.604;2023-08-06T08:45:14;0.50;;;0.50;;
40793;SDS011;26502;51.886;15.604;2023-08-06T08:50:24;1.00;;;0.90;;
40793;SDS011;26502;51.886;15.604;2023-08-06T08:55:30;0.50;;;0.50;;
40793;SDS011;26502;51.886;15.604;2023-08-06T09:00:37;0.80;;;0.80;;
40793;SDS011;26502;51.886;15.604;2023-08-06T09:05:45;0.80;;;0.80;;
40793;SDS011;26502;51.886;15.604;2023-08-06T09:10:54;1.50;;;1.00;;
40793;SDS011;26502;51.886;15.604;2023-08-06T09:16:01;0.80;;;0.80;;
40793;SDS011;26502;51.886;15.604;2023-08-06T09:21:07;0.70;;;0.70;;
40793;SDS011;26502;51.886;15.604;2023-08-06T09:26:19;0.70;;;0.70;;
40793;SDS011;26502;51.886;15.604;2023-08-06T09:31:30;1.10;;;0.70;;
40793;SDS011;26502;51.886;15.604;2023-08-06T09:36:43;1.30;;;0.80;;
40793;SDS011;26502;51.886;15.604;2023-08-06T09:41:55;1.60;;;1.00;;
40793;SDS011;26502;51.886;15.604;2023-08-06T09:47:03;0.90;;;0.90;;
40793;SDS011;26502;51.886;15.604;2023-08-06T09:52:11;0.80;;;0.80;;
40793;SDS011;26502;51.886;15.604;2023-08-06T10:02:23;0.90;;;0.90;;
40793;SDS011;26502;51.886;15.604;2023-08-06T10:07:30;0.90;;;0.90;;
40793;SDS011;26502;51.886;15.604;2023-08-06T10:12:39;1.90;;;1.20;;
40793;SDS011;26502;51.886;15.604;2023-08-06T10:17:50;2.90;;;1.00;;
40793;SDS011;26502;51.886;15.604;2023-08-06T10:23:03;1.60;;;1.20;;
40793;SDS011;26502;51.886;15.604;2023-08-06T10:28:10;1.10;;;1.00;;
40793;SDS011;26502;51.886;15.604;2023-08-06T10:33:18;2.30;;;1.20;;
40793;SDS011;26502;51.886;15.604;2023-08-06T10:38:25;1.20;;;1.10;;
40793;SDS011;26502;51.886;15.604;2023-08-06T10:43:35;1.10;;;0.90;;
40793;SDS011;26502;51.886;15.604;2023-08-06T10:48:43;1.30;;;1.20;;
40793;SDS011;26502;51.886;15.604;2023-08-06T10:53:51;2.40;;;1.40;;
40793;SDS011;26502;51.886;15.604;2023-08-06T10:58:57;1.80;;;1.30;;
40793;SDS011;26502;51.886;15.604;2023-08-06T11:04:04;1.40;;;1.30;;
40793;SDS011;26502;51.886;15.604;2023-08-06T11:09:13;1.50;;;1.40;;
40793;SDS011;26502;51.886;15.604;2023-08-06T11:14:20;1.70;;;1.50;;
40793;SDS011;26502;51.886;15.604;2023-08-06T11:19:27;1.50;;;1.40;;
40793;SDS011;26502;51.886;15.604;2023-08-06T11:24:32;1.50;;;1.40;;
40793;SDS011;26502;51.886;15.604;2023-08-06T11:29:39;1.40;;;1.30;;
40793;SDS011;26502;51.886;15.604;2023-08-06T11:34:45;1.70;;;1.60;;
40793;SDS011;26502;51.886;15.604;2023-08-06T11:39:52;2.00;;;1.90;;
40793;SDS011;26502;51.886;15.604;2023-08-06T11:44:59;1.80;;;1.70;;
40793;SDS011;26502;51.886;15.604;2023-08-06T11:50:07;1.60;;;1.50;;
40793;SDS011;26502;51.886;15.604;2023-08-06T12:00:31;1.90;;;1.80;;
40793;SDS011;26502;51.886;15.604;2023-08-06T12:05:37;2.40;;;1.40;;
40793;SDS011;26502;51.886;15.604;2023-08-06T12:10:43;1.50;;;1.50;;
40793;SDS011;26502;51.886;15.604;2023-08-06T12:15:50;3.20;;;1.60;;
40793;SDS011;26502;51.886;15.604;2023-08-06T12:21:00;1.80;;;1.70;;
40793;SDS011;26502;51.886;15.604;2023-08-06T12:26:06;2.10;;;1.80;;
40793;SDS011;26502;51.886;15.604;2023-08-06T12:31:12;2.10;;;1.50;;
40793;SDS011;26502;51.886;15.604;2023-08-06T12:36:18;1.80;;;1.70;;
40793;SDS011;26502;51.886;15.604;2023-08-06T12:41:25;3.40;;;1.60;;
40793;SDS011;26502;51.886;15.604;2023-08-06T12:46:32;2.80;;;1.90;;
40793;SDS011;26502;51.886;15.604;2023-08-06T12:51:38;1.90;;;1.80;;
40793;SDS011;26502;51.886;15.604;2023-08-06T12:56:44;2.50;;;2.00;;
40793;SDS011;26502;51.886;15.604;2023-08-06T13:01:50;2.20;;;2.00;;
40793;SDS011;26502;51.886;15.604;2023-08-06T13:06:57;2.10;;;1.70;;
40793;SDS011;26502;51.886;15.604;2023-08-06T13:12:02;2.10;;;1.90;;
40793;SDS011;26502;51.886;15.604;2023-08-06T13:17:09;3.70;;;1.80;;
40793;SDS011;26502;51.886;15.604;2023-08-06T13:22:15;1.80;;;1.70;;
40793;SDS011;26502;51.886;15.604;2023-08-06T13:27:21;1.90;;;1.50;;
40793;SDS011;26502;51.886;15.604;2023-08-06T13:32:27;2.00;;;1.90;;
40793;SDS011;26502;51.886;15.604;2023-08-06T13:37:36;1.70;;;1.60;;
40793;SDS011;26502;51.886;15.604;2023-08-06T13:42:42;3.50;;;1.70;;
40793;SDS011;26502;51.886;15.604;2023-08-06T13:47:48;2.20;;;1.70;;
40793;SDS011;26502;51.886;15.604;2023-08-06T13:52:54;1.60;;;1.50;;
40793;SDS011;26502;51.886;15.604;2023-08-06T13:58:01;2.30;;;1.80;;
40793;SDS011;26502;51.886;15.604;2023-08-06T14:03:07;2.40;;;1.70;;
40793;SDS011;26502;51.886;15.604;2023-08-06T14:08:14;2.00;;;1.90;;
40793;SDS011;26502;51.886;15.604;2023-08-06T14:13:21;5.20;;;1.80;;
40793;SDS011;26502;51.886;15.604;2023-08-06T14:18:27;2.00;;;1.70;;
40793;SDS011;26502;51.886;15.604;2023-08-06T14:23:33;1.70;;;1.60;;
40793;SDS011;26502;51.886;15.604;2023-08-06T14:28:39;1.80;;;1.70;;
40793;SDS011;26502;51.886;15.604;2023-08-06T14:33:45;1.70;;;1.60;;
40793;SDS011;26502;51.886;15.604;2023-08-06T14:38:51;1.50;;;1.40;;
40793;SDS011;26502;51.886;15.604;2023-08-06T14:43:59;1.50;;;1.40;;
40793;SDS011;26502;51.886;15.604;2023-08-06T14:49:04;1.60;;;1.50;;
40793;SDS011;26502;51.886;15.604;2023-08-06T14:54:10;1.80;;;1.70;;
40793;SDS011;26502;51.886;15.604;2023-08-06T14:59:16;2.30;;;2.00;;
40793;SDS011;26502;51.886;15.604;2023-08-06T15:04:22;2.10;;;1.80;;
40793;SDS011;26502;51.886;15.604;2023-08-06T15:09:28;15.10;;;9.60;;
40793;SDS011;26502;51.886;15.604;2023-08-06T15:14:34;2.00;;;1.90;;
40793;SDS011;26502;51.886;15.604;2023-08-06T15:19:40;2.70;;;2.40;;
40793;SDS011;26502;51.886;15.604;2023-08-06T15:24:46;2.90;;;1.90;;
40793;SDS011;26502;51.886;15.604;2023-08-06T15:29:52;3.30;;;2.50;;
40793;SDS011;26502;51.886;15.604;2023-08-06T15:34:59;4.30;;;2.00;;
40793;SDS011;26502;51.886;15.604;2023-08-06T15:40:10;3.90;;;2.20;;
40793;SDS011;26502;51.886;15.604;2023-08-06T15:45:19;2.30;;;2.10;;
40793;SDS011;26502;51.886;15.604;2023-08-06T15:50:25;1.60;;;1.50;;
40793;SDS011;26502;51.886;15.604;2023-08-06T15:55:31;1.50;;;1.40;;
40793;SDS011;26502;51.886;15.604;2023-08-06T16:00:40;2.50;;;1.60;;
40793;SDS011;26502;51.886;15.604;2023-08-06T16:05:46;1.50;;;1.40;;
40793;SDS011;26502;51.886;15.604;2023-08-06T16:10:52;1.70;;;1.60;;
40793;SDS011;26502;51.886;15.604;2023-08-06T16:15:58;1.70;;;1.60;;
40793;SDS011;26502;51.886;15.604;2023-08-06T16:21:04;1.60;;;1.50;;
40793;SDS011;26502;51.886;15.604;2023-08-06T16:26:10;1.50;;;1.40;;
40793;SDS011;26502;51.886;15.604;2023-08-06T16:31:15;1.60;;;1.50;;
40793;SDS011;26502;51.886;15.604;2023-08-06T16:36:22;1.30;;;1.20;;
40793;SDS011;26502;51.886;15.604;2023-08-06T16:41:29;1.20;;;1.10;;
40793;SDS011;26502;51.886;15.604;2023-08-06T16:46:35;1.40;;;0.90;;
40793;SDS011;26502;51.886;15.604;2023-08-06T16:51:42;1.40;;;1.30;;
40793;SDS011;26502;51.886;15.604;2023-08-06T16:56:48;1.20;;;1.10;;
40793;SDS011;26502;51.886;15.604;2023-08-06T17:01:53;1.20;;;1.10;;
40793;SDS011;26502;51.886;15.604;2023-08-06T17:06:59;2.40;;;1.50;;
40793;SDS011;26502;51.886;15.604;2023-08-06T17:12:07;1.60;;;1.50;;
40793;SDS011;26502;51.886;15.604;2023-08-06T17:17:14;2.60;;;1.30;;
40793;SDS011;26502;51.886;15.604;2023-08-06T17:22:20;1.30;;;1.20;;
40793;SDS011;26502;51.886;15.604;2023-08-06T17:27:27;1.60;;;1.40;;
40793;SDS011;26502;51.886;15.604;2023-08-06T17:32:34;1.80;;;1.30;;
40793;SDS011;26502;51.886;15.604;2023-08-06T17:37:42;2.30;;;1.40;;
40793;SDS011;26502;51.886;15.604;2023-08-06T17:42:48;3.20;;;1.30;;
40793;SDS011;26502;51.886;15.604;2023-08-06T17:47:54;3.50;;;1.20;;
40793;SDS011;26502;51.886;15.604;2023-08-06T17:58:05;3.60;;;1.10;;
40793;SDS011;26502;51.886;15.604;2023-08-06T18:03:11;5.10;;;1.20;;
40793;SDS011;26502;51.886;15.604;2023-08-06T18:08:19;1.50;;;1.40;;
40793;SDS011;26502;51.886;15.604;2023-08-06T18:13:25;4.80;;;1.50;;
40793;SDS011;26502;51.886;15.604;2023-08-06T18:18:31;1.20;;;1.10;;
40793;SDS011;26502;51.886;15.604;2023-08-06T18:23:37;1.90;;;1.30;;
40793;SDS011;26502;51.886;15.604;2023-08-06T18:28:43;3.20;;;2.10;;
40793;SDS011;26502;51.886;15.604;2023-08-06T18:33:49;2.10;;;1.50;;
40793;SDS011;26502;51.886;15.604;2023-08-06T18:38:55;1.40;;;1.30;;
40793;SDS011;26502;51.886;15.604;2023-08-06T18:44:01;3.90;;;1.60;;
40793;SDS011;26502;51.886;15.604;2023-08-06T18:49:07;7.10;;;2.60;;
40793;SDS011;26502;51.886;15.604;2023-08-06T18:54:13;3.30;;;1.70;;
40793;SDS011;26502;51.886;15.604;2023-08-06T18:59:20;4.10;;;2.40;;
40793;SDS011;26502;51.886;15.604;2023-08-06T19:04:26;3.80;;;2.30;;
40793;SDS011;26502;51.886;15.604;2023-08-06T19:09:33;2.00;;;1.90;;
40793;SDS011;26502;51.886;15.604;2023-08-06T19:14:39;2.90;;;2.00;;
40793;SDS011;26502;51.886;15.604;2023-08-06T19:19:46;3.90;;;1.90;;
40793;SDS011;26502;51.886;15.604;2023-08-06T19:24:52;2.10;;;1.90;;
40793;SDS011;26502;51.886;15.604;2023-08-06T19:29:58;3.10;;;2.70;;
40793;SDS011;26502;51.886;15.604;2023-08-06T19:35:05;4.60;;;2.10;;
40793;SDS011;26502;51.886;15.604;2023-08-06T19:40:12;2.70;;;2.20;;
40793;SDS011;26502;51.886;15.604;2023-08-06T19:45:18;3.60;;;2.30;;
40793;SDS011;26502;51.886;15.604;2023-08-06T19:50:25;2.80;;;2.50;;
40793;SDS011;26502;51.886;15.604;2023-08-06T19:55:31;2.30;;;2.10;;
40793;SDS011;26502;51.886;15.604;2023-08-06T20:00:41;2.40;;;2.20;;
40793;SDS011;26502;51.886;15.604;2023-08-06T20:05:47;2.30;;;2.10;;
40793;SDS011;26502;51.886;15.604;2023-08-06T20:10:53;3.10;;;2.20;;
40793;SDS011;26502;51.886;15.604;2023-08-06T20:16:00;3.20;;;2.40;;
40793;SDS011;26502;51.886;15.604;2023-08-06T20:21:06;2.20;;;2.00;;
40793;SDS011;26502;51.886;15.604;2023-08-06T20:26:12;2.90;;;2.30;;
40793;SDS011;26502;51.886;15.604;2023-08-06T20:31:18;2.40;;;2.20;;
40793;SDS011;26502;51.886;15.604;2023-08-06T20:36:24;3.20;;;2.30;;
40793;SDS011;26502;51.886;15.604;2023-08-06T20:41:30;2.20;;;1.80;;
40793;SDS011;26502;51.886;15.604;2023-08-06T20:46:35;3.70;;;2.10;;
40793;SDS011;26502;51.886;15.604;2023-08-06T20:51:42;3.00;;;2.40;;
40793;SDS011;26502;51.886;15.604;2023-08-06T20:56:47;2.70;;;2.00;;
40793;SDS011;26502;51.886;15.604;2023-08-06T21:01:53;2.90;;;2.00;;
40793;SDS011;26502;51.886;15.604;2023-08-06T21:06:59;2.40;;;2.20;;
40793;SDS011;26502;51.886;15.604;2023-08-06T21:12:06;3.70;;;2.10;;
40793;SDS011;26502;51.886;15.604;2023-08-06T21:17:12;2.20;;;2.00;;
40793;SDS011;26502;51.886;15.604;2023-08-06T21:22:18;3.70;;;2.20;;
40793;SDS011;26502;51.886;15.604;2023-08-06T21:27:24;3.50;;;2.20;;
40793;SDS011;26502;51.886;15.604;2023-08-06T21:32:30;4.70;;;2.80;;
40793;SDS011;26502;51.886;15.604;2023-08-06T21:37:36;3.60;;;3.00;;
40793;SDS011;26502;51.886;15.604;2023-08-06T21:42:44;3.80;;;3.20;;
40793;SDS011;26502;51.886;15.604;2023-08-06T21:47:50;3.90;;;3.50;;
40793;SDS011;26502;51.886;15.604;2023-08-06T21:52:56;5.40;;;3.60;;
40793;SDS011;26502;51.886;15.604;2023-08-06T21:58:02;4.80;;;4.00;;
40793;SDS011;26502;51.886;15.604;2023-08-06T22:03:08;4.30;;;3.90;;
40793;SDS011;26502;51.886;15.604;2023-08-06T22:08:15;5.10;;;3.90;;
40793;SDS011;26502;51.886;15.604;2023-08-06T22:13:21;4.40;;;3.90;;
40793;SDS011;26502;51.886;15.604;2023-08-06T22:18:27;4.80;;;4.30;;
40793;SDS011;26502;51.886;15.604;2023-08-06T22:23:33;6.10;;;3.60;;
40793;SDS011;26502;51.886;15.604;2023-08-06T22:28:39;5.30;;;4.10;;
40793;SDS011;26502;51.886;15.604;2023-08-06T22:33:45;9.80;;;4.70;;
40793;SDS011;26502;51.886;15.604;2023-08-06T22:38:51;4.80;;;4.10;;
40793;SDS011;26502;51.886;15.604;2023-08-06T22:43:57;5.10;;;4.60;;
40793;SDS011;26502;51.886;15.604;2023-08-06T22:49:03;7.50;;;5.20;;
40793;SDS011;26502;51.886;15.604;2023-08-06T22:54:09;6.70;;;4.90;;
40793;SDS011;26502;51.886;15.604;2023-08-06T22:59:15;7.40;;;5.00;;
40793;SDS011;26502;51.886;15.604;2023-08-06T23:04:21;5.40;;;4.90;;
40793;SDS011;26502;51.886;15.604;2023-08-06T23:09:27;6.50;;;5.20;;
40793;SDS011;26502;51.886;15.604;2023-08-06T23:14:32;4.00;;;3.70;;
40793;SDS011;26502;51.886;15.604;2023-08-06T23:19:38;7.50;;;5.00;;
40793;SDS011;26502;51.886;15.604;2023-08-06T23:24:44;6.20;;;5.00;;
40793;SDS011;26502;51.886;15.604;2023-08-06T23:29:50;8.30;;;5.70;;
40793;SDS011;26502;51.886;15.604;2023-08-06T23:34:56;7.70;;;5.40;;
40793;SDS011;26502;51.886;15.604;2023-08-06T23:40:02;5.80;;;5.10;;
40793;SDS011;26502;51.886;15.604;2023-08-06T23:45:11;8.40;;;5.70;;
40793;SDS011;26502;51.886;15.604;2023-08-06T23:50:17;5.30;;;4.50;;
40793;SDS011;26502;51.886;15.604;2023-08-06T23:55:22;4.80;;;4.10;;
